Terminal Aerodrome Forecast
Issued by NWS

Home | Current Version | Previous Version | Text Only | Print | Product List | Glossary On
Versions: 1 2 3 4 5 6 7 8 9 10 11 12 13 14 15 16 17 18
000
FTUS42 KGSP 251739
TAFHKY
TAF
KHKY 251739Z 2518/2618 VRB03KT P6SM OVC090
     FM251900 26008KT P6SM OVC035
     FM260000 31005KT 4SM BR OVC025
     FM260400 VRB03KT 2SM -SHRA BR OVC035
     FM261500 33002KT 2SM -SHRA BR OVC015
     FM261700 VRB03KT P6SM OVC015=

USA.gov is the U.S. government's official web portal to all federal, state and local government web resources and services.